createdAt,value
2023-02-28T00:00:23.754Z,103644.53
2023-02-28T00:02:51.957Z,103638.63
2023-02-28T00:05:21.920Z,103643.88
2023-02-28T00:07:51.071Z,103638.97
2023-02-28T00:10:21.893Z,103639.84
2023-02-28T00:12:50.024Z,103644.31
2023-02-28T00:15:19.166Z,103642.66
2023-02-28T00:17:48.678Z,103646.13
2023-02-28T00:20:17.490Z,103646.13
2023-02-28T00:22:47.696Z,103639.97
2023-02-28T00:25:16.478Z,103642.53
2023-02-28T00:27:45.014Z,103646.91
2023-02-28T00:30:17.121Z,103647.66
2023-02-28T00:32:45.559Z,103648.59
2023-02-28T00:35:15.564Z,103653.59
2023-02-28T00:37:44.034Z,103656.16
2023-02-28T00:40:13.654Z,103658.09
2023-02-28T00:42:42.436Z,103657.44
2023-02-28T00:45:12.128Z,103660.88
2023-02-28T00:47:40.528Z,103660.09
2023-02-28T00:50:10.079Z,103656.84
2023-02-28T00:52:39.848Z,103655.31
2023-02-28T00:55:08.562Z,103655.56
2023-02-28T00:57:36.918Z,103659.78
2023-02-28T01:00:06.822Z,103650.41
2023-02-28T01:02:34.952Z,103653.97
2023-02-28T01:05:03.925Z,103659.91
2023-02-28T01:07:32.637Z,103657.34
2023-02-28T01:10:02.504Z,103653.09
2023-02-28T01:12:31.179Z,103648.19
2023-02-28T01:14:59.878Z,103660.38
2023-02-28T01:17:28.275Z,103656.25
2023-02-28T01:19:57.797Z,103668.31
2023-02-28T01:22:25.935Z,103662.28
2023-02-28T01:24:54.487Z,103658.69
2023-02-28T01:27:24.252Z,103651.75
2023-02-28T01:29:53.708Z,103658.47
2023-02-28T01:32:22.463Z,103651.53
2023-02-28T01:34:50.977Z,103653.44
2023-02-28T01:37:19.109Z,103653.44
2023-02-28T01:39:47.222Z,103651.66
2023-02-28T01:42:15.714Z,103662.72
2023-02-28T01:45:05.848Z,103657.34
2023-02-28T01:47:38.642Z,103655.56
2023-02-28T01:50:10.341Z,103667.38
2023-02-28T01:52:38.915Z,103666.47
2023-02-28T01:55:09.313Z,103658.75
2023-02-28T01:57:41.932Z,103661.34
2023-02-28T02:00:16.215Z,103668.16
2023-02-28T02:02:47.680Z,103657.00
2023-02-28T02:05:19.335Z,103654.53
2023-02-28T02:07:52.547Z,103659.69
2023-02-28T02:10:23.048Z,103664.81
2023-02-28T02:13:07.578Z,103666.47
2023-02-28T02:15:44.960Z,103655.56
2023-02-28T02:18:21.807Z,103652.22
2023-02-28T02:21:18.089Z,103650.63
2023-02-28T02:24:15.885Z,103656.78
2023-02-28T02:27:05.358Z,103656.00
2023-02-28T02:30:20.991Z,103664.50
2023-02-28T02:33:28.409Z,103656.69
2023-02-28T02:36:05.261Z,103666.06
2023-02-28T02:38:39.310Z,103664.25
2023-02-28T02:41:17.527Z,103662.50
2023-02-28T02:43:50.779Z,103664.72
2023-02-28T02:46:31.839Z,103666.44
2023-02-28T02:49:02.997Z,103662.38
2023-02-28T02:51:35.015Z,103663.59
2023-02-28T02:54:08.912Z,103654.97
2023-02-28T02:56:39.104Z,103657.44
2023-02-28T02:59:10.595Z,103665.25
2023-02-28T03:01:42.152Z,103660.13
2023-02-28T03:04:14.168Z,103662.56
2023-02-28T03:06:43.810Z,103658.31
2023-02-28T03:09:12.001Z,103654.97
2023-02-28T03:11:41.654Z,103655.13
2023-02-28T03:14:28.214Z,103649.19
2023-02-28T03:17:22.533Z,103659.69
2023-02-28T03:20:00.500Z,103648.75
2023-02-28T03:22:50.804Z,103653.13
2023-02-28T03:25:22.683Z,103655.94
2023-02-28T03:28:02.796Z,103653.47
2023-02-28T03:30:38.493Z,103656.97
2023-02-28T03:33:13.818Z,103651.00
2023-02-28T03:35:46.866Z,103651.94
2023-02-28T03:38:22.078Z,103649.47
2023-02-28T03:40:53.510Z,103649.56
2023-02-28T03:43:31.850Z,103658.97
2023-02-28T03:46:03.424Z,103664.88
2023-02-28T03:48:37.582Z,103665.66
2023-02-28T03:51:09.729Z,103664.88
2023-02-28T03:53:44.255Z,103658.19
2023-02-28T03:56:17.801Z,103665.00
2023-02-28T03:58:53.614Z,103670.78
2023-02-28T04:01:25.112Z,103672.13
2023-02-28T04:03:53.829Z,103672.19
2023-02-28T04:06:24.558Z,103664.13
2023-02-28T04:08:54.112Z,103662.22
2023-02-28T04:11:26.088Z,103674.94
2023-02-28T04:13:54.658Z,103673.00
2023-02-28T04:16:34.521Z,103678.16
2023-02-28T04:19:04.651Z,103685.06
2023-02-28T04:21:34.323Z,103680.09
2023-02-28T04:24:04.194Z,103682.66
2023-02-28T04:26:33.046Z,103686.88
2023-02-28T04:29:01.770Z,103688.66
2023-02-28T04:31:30.173Z,103689.59
2023-02-28T04:33:59.600Z,103688.66
2023-02-28T04:36:28.911Z,103691.13
2023-02-28T04:38:57.023Z,103689.34
2023-02-28T04:41:28.049Z,103695.34
2023-02-28T04:43:57.844Z,103693.56
2023-02-28T04:46:26.252Z,103697.91
2023-02-28T04:48:55.583Z,103707.41
2023-02-28T04:51:23.982Z,103707.41
2023-02-28T04:53:54.055Z,103707.59
2023-02-28T04:56:22.594Z,103704.72
2023-02-28T04:58:56.708Z,103704.00
2023-02-28T05:01:27.496Z,103708.69
2023-02-28T05:03:57.768Z,103711.28
2023-02-28T05:06:27.401Z,103711.03
2023-02-28T05:08:55.902Z,103710.28
2023-02-28T05:11:27.488Z,103703.06
2023-02-28T05:13:57.577Z,103710.78
2023-02-28T05:16:25.670Z,103711.28
2023-02-28T05:18:54.951Z,103713.97
2023-02-28T05:21:32.326Z,103711.94
2023-02-28T05:24:02.387Z,103710.63
2023-02-28T05:26:31.580Z,103701.03
2023-02-28T05:29:01.086Z,103708.88
2023-02-28T05:31:29.486Z,103720.28
2023-02-28T05:33:57.747Z,103718.59
2023-02-28T05:36:26.254Z,103714.22
2023-02-28T05:38:54.582Z,103719.25
2023-02-28T05:41:23.436Z,103721.81
2023-02-28T05:43:51.842Z,103730.28
2023-02-28T05:46:21.445Z,103728.47
2023-02-28T05:48:50.990Z,103728.84
2023-02-28T05:51:19.661Z,103730.78
2023-02-28T05:53:49.333Z,103728.47
2023-02-28T05:56:18.655Z,103731.31
2023-02-28T05:58:46.792Z,103733.97
2023-02-28T06:01:32.722Z,103739.00
2023-02-28T06:04:01.916Z,103730.38
2023-02-28T06:06:30.626Z,103726.16
2023-02-28T06:08:58.936Z,103730.13
2023-02-28T06:11:29.277Z,103727.44
2023-02-28T06:13:57.932Z,103733.34
2023-02-28T06:16:28.125Z,103736.56
2023-02-28T06:18:57.339Z,103738.84
2023-02-28T06:21:25.903Z,103742.81
2023-02-28T06:23:55.125Z,103738.88
2023-02-28T06:26:23.335Z,103745.91
2023-02-28T06:28:52.671Z,103750.53
2023-02-28T06:31:21.550Z,103748.47
2023-02-28T06:33:51.517Z,103743.09
2023-02-28T06:36:20.140Z,103742.19
2023-02-28T06:38:52.460Z,103750.91
2023-02-28T06:41:20.913Z,103758.88
2023-02-28T06:43:48.939Z,103766.78
2023-02-28T06:46:17.828Z,103761.16
2023-02-28T06:48:46.517Z,103759.75
2023-02-28T06:51:18.329Z,103755.50
2023-02-28T06:53:46.495Z,103767.34
2023-02-28T06:56:16.872Z,103772.31
2023-02-28T06:58:48.755Z,103768.97
2023-02-28T07:01:17.156Z,103777.81
2023-02-28T07:03:45.492Z,103778.34
2023-02-28T07:06:13.564Z,103782.97
2023-02-28T07:08:43.054Z,103785.91
2023-02-28T07:11:12.222Z,103790.00
2023-02-28T07:13:40.307Z,103792.72
2023-02-28T07:16:12.030Z,103805.41
2023-02-28T07:18:40.771Z,103806.91
2023-02-28T07:21:10.814Z,103812.00
2023-02-28T07:23:40.193Z,103806.59
2023-02-28T07:26:16.504Z,103806.81
2023-02-28T07:28:44.914Z,103816.66
2023-02-28T07:31:14.989Z,103818.06
2023-02-28T07:33:43.814Z,103821.09
2023-02-28T07:36:16.564Z,103814.06
2023-02-28T07:38:48.127Z,103822.03
2023-02-28T07:41:18.586Z,103818.94
2023-02-28T07:43:47.016Z,103822.97
2023-02-28T07:46:17.334Z,103818.25
2023-02-28T07:48:46.860Z,103816.97
2023-02-28T07:51:15.228Z,103821.72
2023-02-28T07:53:43.370Z,103832.50
2023-02-28T07:56:12.563Z,103830.22
2023-02-28T07:58:42.049Z,103831.38
2023-02-28T08:01:11.137Z,103832.81
2023-02-28T08:03:43.770Z,103839.59
2023-02-28T08:06:21.934Z,103836.66
2023-02-28T08:08:53.443Z,103834.63
2023-02-28T08:11:21.602Z,103836.16
2023-02-28T08:13:52.559Z,103839.50
2023-02-28T08:16:23.426Z,103832.72
2023-02-28T08:18:52.543Z,103830.53
2023-02-28T08:21:21.876Z,103834.66
2023-02-28T08:24:00.415Z,103836.09
2023-02-28T08:26:28.813Z,103839.31
2023-02-28T08:29:01.361Z,103844.41
2023-02-28T08:31:30.041Z,103845.97
2023-02-28T08:34:00.051Z,103850.06
2023-02-28T08:36:34.434Z,103837.72
2023-02-28T08:39:36.386Z,103844.13
2023-02-28T08:42:07.703Z,103847.72
2023-02-28T08:44:39.313Z,103849.25
2023-02-28T08:47:07.792Z,103847.47
2023-02-28T08:49:36.382Z,103841.44
2023-02-28T08:52:04.982Z,103841.44
2023-02-28T08:54:34.413Z,103850.19
2023-02-28T08:57:02.983Z,103842.59
2023-02-28T08:59:31.744Z,103848.47
2023-02-28T09:02:01.909Z,103850.22
2023-02-28T09:04:31.782Z,103850.19
2023-02-28T09:07:00.629Z,103844.25
2023-02-28T09:09:30.133Z,103853.72
2023-02-28T09:11:58.510Z,103853.91
2023-02-28T09:14:26.874Z,103859.22
2023-02-28T09:16:55.876Z,103862.78
2023-02-28T09:19:25.440Z,103865.66
2023-02-28T09:21:53.929Z,103852.00
2023-02-28T09:24:23.370Z,103857.22
2023-02-28T09:27:03.542Z,103865.31
2023-02-28T09:29:32.086Z,103858.16
2023-02-28T09:32:00.796Z,103862.22
2023-02-28T09:34:31.980Z,103858.34
2023-02-28T09:37:00.210Z,103858.00
2023-02-28T09:39:29.640Z,103863.63
2023-02-28T09:41:59.813Z,103854.81
2023-02-28T09:44:31.665Z,103857.84
2023-02-28T09:47:03.428Z,103866.25
2023-02-28T09:49:40.295Z,103870.88
2023-02-28T09:52:13.285Z,103869.50
2023-02-28T09:54:41.723Z,103870.19
2023-02-28T09:57:18.877Z,103871.97
2023-02-28T10:00:00.792Z,103873.09
2023-02-28T10:03:01.045Z,103864.59
2023-02-28T10:05:32.682Z,103867.94
2023-02-28T10:08:10.193Z,103869.63
2023-02-28T10:10:43.098Z,103866.47
2023-02-28T10:13:29.067Z,103871.41
2023-02-28T10:16:01.924Z,103872.84
2023-02-28T10:18:36.027Z,103862.31
2023-02-28T10:21:05.780Z,103872.41
2023-02-28T10:23:37.824Z,103863.91
2023-02-28T10:26:17.101Z,103864.91
2023-02-28T10:28:45.721Z,103861.09
2023-02-28T10:31:19.703Z,103871.53
2023-02-28T10:33:48.113Z,103868.50
2023-02-28T10:36:20.034Z,103857.63
2023-02-28T10:38:48.902Z,103862.34
2023-02-28T10:41:29.325Z,103868.38
2023-02-28T10:44:17.248Z,103864.03
2023-02-28T10:46:47.586Z,103870.28
2023-02-28T10:49:20.778Z,103869.13
2023-02-28T10:51:55.777Z,103879.31
2023-02-28T10:54:30.432Z,103873.16
2023-02-28T10:57:18.795Z,103875.72
2023-02-28T10:59:48.188Z,103875.09
2023-02-28T11:05:03.056Z,103871.63
2023-02-28T11:07:41.474Z,103872.75
2023-02-28T11:10:22.264Z,103872.84
2023-02-28T11:12:53.251Z,103867.84
2023-02-28T11:15:27.053Z,103879.69
2023-02-28T11:18:00.450Z,103866.56
2023-02-28T11:20:32.016Z,103864.81
2023-02-28T11:23:03.963Z,103866.81
2023-02-28T11:25:34.498Z,103863.66
2023-02-28T11:28:05.794Z,103867.03
2023-02-28T11:30:36.863Z,103874.16
2023-02-28T11:33:24.482Z,103871.22
2023-02-28T11:35:59.657Z,103873.03
2023-02-28T11:38:30.085Z,103867.22
2023-02-28T11:41:39.023Z,103867.31
2023-02-28T11:44:28.386Z,103874.44
2023-02-28T11:47:02.092Z,103870.16
2023-02-28T11:49:38.752Z,103872.38
2023-02-28T11:52:22.363Z,103867.34
2023-02-28T11:55:06.091Z,103862.78
2023-02-28T11:57:44.549Z,103867.63
2023-02-28T12:00:28.302Z,103853.25
2023-02-28T12:03:07.339Z,103854.53
2023-02-28T12:05:44.947Z,103854.59
2023-02-28T12:08:28.868Z,103844.09
2023-02-28T12:11:08.817Z,103860.25
2023-02-28T12:13:48.627Z,103847.63
2023-02-28T12:16:36.278Z,103844.84
2023-02-28T12:19:15.551Z,103843.13
2023-02-28T12:21:59.054Z,103845.69
2023-02-28T12:24:41.395Z,103833.16
2023-02-28T12:27:15.798Z,103841.59
2023-02-28T12:29:52.271Z,103843.84
2023-02-28T12:32:28.320Z,103854.63
2023-02-28T12:35:01.819Z,103843.41
2023-02-28T12:37:35.426Z,103842.16
2023-02-28T12:40:08.825Z,103839.06
2023-02-28T12:42:43.624Z,103843.94
2023-02-28T12:45:17.740Z,103842.72
2023-02-28T12:47:48.925Z,103846.38
2023-02-28T12:50:18.165Z,103840.59
2023-02-28T12:52:56.785Z,103834.88
2023-02-28T12:55:32.774Z,103830.84
2023-02-28T12:58:13.215Z,103828.38
2023-02-28T13:00:59.065Z,103833.00
2023-02-28T13:03:54.353Z,103829.72
2023-02-28T13:06:59.178Z,103824.81
2023-02-28T13:09:27.654Z,103837.91
2023-02-28T13:11:58.141Z,103828.53
2023-02-28T13:14:32.618Z,103825.56
2023-02-28T13:17:12.618Z,103827.22
2023-02-28T13:19:43.833Z,103833.91
2023-02-28T13:22:20.586Z,103821.47
2023-02-28T13:24:52.563Z,103821.47
2023-02-28T13:27:36.297Z,103818.38
2023-02-28T13:30:44.944Z,103815.00
2023-02-28T13:33:32.042Z,103809.09
2023-02-28T13:36:11.167Z,103808.66
2023-02-28T13:38:42.075Z,103791.09
2023-02-28T13:41:43.721Z,103796.34
2023-02-28T13:44:14.356Z,103792.88
2023-02-28T13:47:30.204Z,103789.97
2023-02-28T13:50:29.666Z,103791.22
2023-02-28T13:53:22.729Z,103777.66
2023-02-28T13:55:56.128Z,103783.88
2023-02-28T13:58:46.728Z,103791.19
2023-02-28T14:01:27.210Z,103782.81
2023-02-28T14:04:32.601Z,103779.25
2023-02-28T14:07:03.169Z,103775.19
2023-02-28T14:09:35.714Z,103772.25
2023-02-28T14:12:37.410Z,103774.72
2023-02-28T14:15:07.104Z,103774.03
2023-02-28T14:17:35.536Z,103777.94
2023-02-28T14:20:05.768Z,103776.94
2023-02-28T14:22:54.941Z,103769.91
2023-02-28T14:25:34.380Z,103769.91
2023-02-28T14:28:14.530Z,103772.81
2023-02-28T14:30:55.302Z,103770.03
2023-02-28T14:33:38.898Z,103768.03
2023-02-28T14:36:14.156Z,103764.69
2023-02-28T14:38:47.693Z,103763.31
2023-02-28T14:41:22.067Z,103762.97
2023-02-28T14:43:56.198Z,103769.25
2023-02-28T14:46:28.988Z,103766.22
2023-02-28T14:48:58.591Z,103770.59
2023-02-28T14:51:28.154Z,103763.53
2023-02-28T14:54:01.244Z,103770.25
2023-02-28T14:56:35.456Z,103768.00
2023-02-28T14:59:09.406Z,103761.94
2023-02-28T15:01:37.984Z,103763.88
2023-02-28T15:04:08.237Z,103760.28
2023-02-28T15:06:37.840Z,103760.03
2023-02-28T15:09:11.399Z,103762.84
2023-02-28T15:11:41.337Z,103752.97
2023-02-28T15:14:10.013Z,103765.50
2023-02-28T15:16:42.236Z,103760.59
2023-02-28T15:19:16.985Z,103753.75
2023-02-28T15:21:50.813Z,103747.59
2023-02-28T15:24:24.953Z,103750.41
2023-02-28T15:26:57.704Z,103743.69
2023-02-28T15:29:28.280Z,103742.13
2023-02-28T15:32:03.855Z,103751.63
2023-02-28T15:34:43.314Z,103748.84
2023-02-28T15:37:31.153Z,103759.22
2023-02-28T15:40:06.384Z,103752.84
2023-02-28T15:42:34.624Z,103755.94
2023-02-28T15:45:02.898Z,103758.84
2023-02-28T15:47:32.739Z,103750.00
2023-02-28T15:50:03.011Z,103753.09
2023-02-28T15:52:43.958Z,103755.47
2023-02-28T15:55:20.079Z,103758.25
2023-02-28T15:57:50.707Z,103753.78
2023-02-28T16:00:23.583Z,103751.75
2023-02-28T16:02:52.821Z,103756.91
2023-02-28T16:05:29.363Z,103748.28
2023-02-28T16:08:01.076Z,103744.56
2023-02-28T16:10:32.169Z,103745.13
2023-02-28T16:13:00.997Z,103746.91
2023-02-28T16:15:31.327Z,103752.84
2023-02-28T16:18:00.002Z,103743.09
2023-02-28T16:20:30.809Z,103754.16
2023-02-28T16:23:02.602Z,103758.94
2023-02-28T16:25:36.474Z,103758.56
2023-02-28T16:28:05.581Z,103757.59
2023-02-28T16:30:34.301Z,103760.66
2023-02-28T16:33:02.486Z,103768.94
2023-02-28T16:35:31.021Z,103765.44
2023-02-28T16:38:00.731Z,103760.31
2023-02-28T16:40:30.525Z,103766.78
2023-02-28T16:43:02.555Z,103763.28
2023-02-28T16:45:32.713Z,103758.41
2023-02-28T16:48:00.995Z,103753.00
2023-02-28T16:50:31.140Z,103761.75
2023-02-28T16:53:02.833Z,103760.19
2023-02-28T16:55:35.616Z,103759.19
2023-02-28T16:58:07.569Z,103756.50
2023-02-28T17:00:35.955Z,103764.06
2023-02-28T17:03:06.402Z,103761.03
2023-02-28T17:05:40.718Z,103762.94
2023-02-28T17:08:11.762Z,103763.06
2023-02-28T17:10:39.963Z,103761.94
2023-02-28T17:13:15.226Z,103768.47
2023-02-28T17:15:43.926Z,103765.56
2023-02-28T17:18:20.265Z,103764.53
2023-02-28T17:20:49.161Z,103771.34
2023-02-28T17:23:20.040Z,103773.16
2023-02-28T17:25:58.201Z,103765.91
2023-02-28T17:28:26.998Z,103763.19
2023-02-28T17:30:55.808Z,103776.78
2023-02-28T17:33:23.944Z,103775.03
2023-02-28T17:35:53.693Z,103779.25
2023-02-28T17:38:24.226Z,103771.56
2023-02-28T17:40:58.479Z,103765.53
2023-02-28T17:43:27.492Z,103776.69
2023-02-28T17:45:57.573Z,103768.63
2023-02-28T17:48:26.015Z,103766.81
2023-02-28T17:50:54.965Z,103774.53
2023-02-28T17:53:24.680Z,103779.81
2023-02-28T17:55:53.319Z,103772.09
2023-02-28T17:58:22.564Z,103776.09
2023-02-28T18:00:57.830Z,103770.81
2023-02-28T18:03:27.151Z,103779.66
2023-02-28T18:05:55.352Z,103785.72
2023-02-28T18:08:25.443Z,103783.91
2023-02-28T18:10:53.652Z,103783.91
2023-02-28T18:13:21.853Z,103800.19
2023-02-28T18:15:50.305Z,103800.09
2023-02-28T18:18:18.856Z,103798.16
2023-02-28T18:20:50.149Z,103807.66
2023-02-28T18:23:20.658Z,103804.06
2023-02-28T18:25:50.305Z,103801.50
2023-02-28T18:28:18.752Z,103808.44
2023-02-28T18:30:49.310Z,103808.28
2023-02-28T18:33:17.897Z,103815.13
2023-02-28T18:35:46.116Z,103809.72
2023-02-28T18:38:16.924Z,103803.31
2023-02-28T18:40:55.833Z,103798.97
2023-02-28T18:43:24.760Z,103797.94
2023-02-28T18:45:52.890Z,103801.53
2023-02-28T18:48:23.337Z,103800.75
2023-02-28T18:50:51.752Z,103794.84
2023-02-28T18:53:20.436Z,103795.38
2023-02-28T18:55:48.672Z,103797.16
2023-02-28T18:58:18.339Z,103792.03
2023-02-28T19:00:46.608Z,103805.00
2023-02-28T19:03:15.146Z,103801.53
2023-02-28T19:05:43.521Z,103799.72
2023-02-28T19:08:11.917Z,103794.38
2023-02-28T19:10:41.818Z,103803.72
2023-02-28T19:13:10.296Z,103805.13
2023-02-28T19:15:39.824Z,103801.81
2023-02-28T19:18:09.116Z,103810.53
2023-02-28T19:20:37.774Z,103807.06
2023-02-28T19:23:07.673Z,103808.72
2023-02-28T19:25:35.783Z,103816.16
2023-02-28T19:28:04.065Z,103813.59
2023-02-28T19:30:32.487Z,103810.03
2023-02-28T19:33:02.208Z,103814.25
2023-02-28T19:35:30.424Z,103817.59
2023-02-28T19:37:59.955Z,103820.31
2023-02-28T19:40:28.307Z,103811.56
2023-02-28T19:42:57.504Z,103818.34
2023-02-28T19:45:28.376Z,103825.06
2023-02-28T19:47:57.027Z,103814.25
2023-02-28T19:50:27.046Z,103818.63
2023-02-28T19:52:56.323Z,103814.53
2023-02-28T19:55:25.189Z,103824.91
2023-02-28T19:57:54.036Z,103809.91
2023-02-28T20:00:22.433Z,103815.94
2023-02-28T20:02:50.574Z,103821.06
2023-02-28T20:05:18.865Z,103831.56
2023-02-28T20:07:48.511Z,103835.19
2023-02-28T20:10:16.743Z,103824.25
2023-02-28T20:12:47.829Z,103824.53
2023-02-28T20:15:16.580Z,103825.44
2023-02-28T20:17:46.964Z,103824.53
2023-02-28T20:20:15.412Z,103823.63
2023-02-28T20:22:46.850Z,103826.22
2023-02-28T20:25:17.324Z,103827.09
2023-02-28T20:27:47.974Z,103828.00
2023-02-28T20:30:16.618Z,103823.63
2023-02-28T20:32:44.766Z,103829.00
2023-02-28T20:35:15.109Z,103833.25
2023-02-28T20:37:45.782Z,103825.66
2023-02-28T20:40:17.315Z,103823.00
2023-02-28T20:42:48.227Z,103826.59
2023-02-28T20:45:20.651Z,103816.94
2023-02-28T20:47:48.747Z,103816.81
2023-02-28T20:50:17.465Z,103815.19
2023-02-28T20:52:46.146Z,103808.25
2023-02-28T20:55:16.311Z,103810.03
2023-02-28T20:57:44.213Z,103810.94
2023-02-28T21:00:16.395Z,103799.25
2023-02-28T21:02:44.880Z,103804.91
2023-02-28T21:05:17.223Z,103809.00
2023-02-28T21:07:47.659Z,103805.53
2023-02-28T21:10:17.672Z,103802.84
2023-02-28T21:12:45.725Z,103801.16
2023-02-28T21:15:14.912Z,103800.41
2023-02-28T21:17:43.456Z,103801.31
2023-02-28T21:20:22.197Z,103810.03
2023-02-28T21:22:50.683Z,103806.44
2023-02-28T21:25:20.271Z,103807.31
2023-02-28T21:27:48.565Z,103806.28
2023-02-28T21:30:17.067Z,103792.31
2023-02-28T21:32:45.153Z,103800.78
2023-02-28T21:35:13.235Z,103793.09
2023-02-28T21:37:41.597Z,103787.84
2023-02-28T21:40:10.861Z,103798.09
2023-02-28T21:42:40.423Z,103796.19
2023-02-28T21:45:09.626Z,103791.81
2023-02-28T21:47:37.816Z,103783.34
2023-02-28T21:50:06.573Z,103792.75
2023-02-28T21:52:34.764Z,103791.72
2023-02-28T21:55:03.100Z,103790.78
2023-02-28T21:57:32.683Z,103791.56
2023-02-28T22:00:21.910Z,103789.00
2023-02-28T22:02:50.020Z,103786.56
2023-02-28T22:05:18.405Z,103783.34
2023-02-28T22:07:46.595Z,103788.50
2023-02-28T22:10:14.714Z,103786.69
2023-02-28T22:12:43.202Z,103785.81
2023-02-28T22:15:13.808Z,103790.03
2023-02-28T22:17:42.453Z,103788.50
2023-02-28T22:20:12.836Z,103788.50
2023-02-28T22:22:41.096Z,103794.50
2023-02-28T22:25:10.459Z,103797.88
2023-02-28T22:27:38.538Z,103790.03
2023-02-28T22:30:07.670Z,103789.25
2023-02-28T22:32:40.531Z,103778.22
2023-02-28T22:35:10.490Z,103790.28
2023-02-28T22:37:38.561Z,103788.75
2023-02-28T22:40:09.707Z,103787.19
2023-02-28T22:42:37.755Z,103780.41
2023-02-28T22:45:08.776Z,103785.66
2023-02-28T22:47:36.945Z,103789.13
2023-02-28T22:50:07.474Z,103791.69
2023-02-28T22:52:37.524Z,103784.00
2023-02-28T22:55:06.404Z,103776.41
2023-02-28T22:57:34.891Z,103783.19
2023-02-28T23:00:03.282Z,103782.44
2023-02-28T23:02:31.449Z,103786.94
2023-02-28T23:05:00.153Z,103782.81
2023-02-28T23:07:29.716Z,103784.59
2023-02-28T23:09:57.842Z,103790.78
2023-02-28T23:12:26.261Z,103787.28
2023-02-28T23:14:56.233Z,103787.44
2023-02-28T23:17:24.410Z,103779.72
2023-02-28T23:19:52.481Z,103784.09
2023-02-28T23:22:20.727Z,103782.41
2023-02-28T23:24:51.285Z,103785.09
2023-02-28T23:27:19.366Z,103784.31
2023-02-28T23:29:47.844Z,103783.56
2023-02-28T23:32:16.030Z,103775.84
2023-02-28T23:34:44.256Z,103773.28
2023-02-28T23:37:12.517Z,103785.34
2023-02-28T23:39:41.573Z,103775.09
2023-02-28T23:42:11.152Z,103769.94
2023-02-28T23:44:39.599Z,103775.09
2023-02-28T23:47:07.983Z,103767.28
2023-02-28T23:49:36.639Z,103774.22
2023-02-28T23:52:05.101Z,103764.81
2023-02-28T23:54:33.536Z,103775.09
2023-02-28T23:57:01.571Z,103772.63
2023-02-28T23:59:31.460Z,103769.19
